Aérodrome :
LOGIN :

S'inscrire | Disclaimer

   EN    FR    IT 

 










Légende :    VFR   VFR Marginal   IFR   IFR Intensif   IFR Très Intensif
Visi : 
Plafond : 
>= 8 km
>= 3000ft
5 à 8 km
1000 à 3000 ft
1500m à 5 km
500 à 1000 ft
800 à 1500m
200 à 500 ft
< 800m
< 200 ft
Symboles :   Orages  Brouillard  Fortes neiges  Fortes précipitations  Vent > 20 kt
SIGMETs :   Divers  Orages  Givrage  Turbulence  Onde Orograph.  Cendres Volcan.







- Altitude de l'aérodrome : 87 ft
- Code IATA : FSC
- Voir les cartes d'approche


LFKF - Figari

DERNIER METAR :
  • 202000Z AUTO VRB02KT CAVOK 13/11 Q1021 NOSIG

METARs EXPIRÉS :
  • 201930Z AUTO 17003KT 120V210 CAVOK 14/13 Q1021 NOSIG
  • 201900Z AUTO VRB03KT CAVOK 15/12 Q1020 NOSIG
  • 201830Z AUTO 21006KT 9000 NSC 16/12 Q1020 NOSIG
  • 201800Z AUTO 21005KT CAVOK 18/12 Q1020 NOSIG
  • 201730Z AUTO 23004KT 190V250 CAVOK 21/11 Q1020 NOSIG

TAF TAF LFKF
Valide du 20 à 15h jusqu'au 21 à 15h UTC


201400Z 2015/2115 VRB05KT CAVOK
TEMPO 2015/2018 21010KT
Pas de NOTAMs connus pour ce terrain.



MET'MAP, la Météo Aéronautique d'un coup d'oeil ! - Copyright ORBIFLY Décembre 2007 - Disclaimer

ORBIFLY MET'MAP TEAM :

Programmation & Développement : Alexandra Zaïnal
Conception & Développement : Baudouin d'Aumeries
Co-Programmation & Développement : Marc-Olivier Méhu
Soutien technique & logistique : Manuel Goepfert

Contact : metmap@orbifly.com




SOURCES & CREDITS :

   NOAA